Time;durP1;ratioP1;P1;durP2;ratioP2;P2;SDS_P1;SDS_P2;PMS_P1;PMS_P2;Temp;Humidity;BMP_temperature;BMP_pressure;BME280_temperature;BME280_humidity;BME280_pressure;Samples;Min_cycle;Max_cycle;Signal;HPM_P1;HPM_P2
2024/04/18 00:04:03;;;;;;;3.97;3.03;;;5.90;99.90;;;;;;13404841;26;20008;-80
2024/04/18 00:10:06;;;;;;;3.75;2.88;;;5.90;99.90;;;;;;13403156;26;20011;-79
2024/04/18 00:16:08;;;;;;;6.15;4.25;;;5.90;99.90;;;;;;13412721;26;20011;-80
2024/04/18 00:22:10;;;;;;;4.88;3.00;;;5.90;99.90;;;;;;13366810;26;20060;-81
2024/04/18 00:28:12;;;;;;;4.40;3.00;;;5.80;99.90;;;;;;13400915;26;20008;-80
2024/04/18 00:34:14;;;;;;;5.00;3.50;;;5.80;99.90;;;;;;13365302;26;20485;-81
2024/04/18 00:40:16;;;;;;;4.80;3.28;;;5.80;99.90;;;;;;13392638;26;20023;-81
2024/04/18 00:46:19;;;;;;;6.07;3.50;;;5.60;99.90;;;;;;13394657;26;20033;-80
2024/04/18 00:52:22;;;;;;;6.70;4.10;;;5.70;99.90;;;;;;13348678;26;20405;-79
2024/04/18 00:58:25;;;;;;;5.55;3.92;;;5.60;99.90;;;;;;13332298;26;20372;-80
2024/04/18 01:04:28;;;;;;;6.00;4.47;;;5.80;99.90;;;;;;13368776;26;20015;-80
2024/04/18 01:10:30;;;;;;;7.32;5.40;;;5.80;99.90;;;;;;13370251;26;20019;-80
2024/04/18 01:16:32;;;;;;;6.13;4.80;;;5.80;99.90;;;;;;13402715;26;20110;-81
2024/04/18 01:22:34;;;;;;;11.77;6.68;;;5.80;99.90;;;;;;13337821;26;20130;-81
2024/04/18 01:28:36;;;;;;;9.13;6.85;;;5.80;99.90;;;;;;13395850;26;20019;-80
2024/04/18 01:34:42;;;;;;;12.18;8.02;;;5.90;99.90;;;;;;13374432;26;20027;-79
2024/04/18 01:40:44;;;;;;;10.73;8.27;;;6.00;99.90;;;;;;13406476;26;20015;-79
2024/04/18 01:46:46;;;;;;;10.75;7.47;;;5.90;99.90;;;;;;13372088;26;20015;-80
2024/04/18 01:52:48;;;;;;;10.73;7.85;;;6.00;99.90;;;;;;13367972;26;20001;-80
2024/04/18 01:58:50;;;;;;;11.32;7.97;;;6.00;99.90;;;;;;13354983;26;20499;-79
2024/04/18 02:04:52;;;;;;;13.35;8.10;;;6.00;99.90;;;;;;13376621;26;20057;-79
2024/04/18 02:10:54;;;;;;;11.13;7.22;;;5.90;99.90;;;;;;13373946;26;20027;-79
2024/04/18 02:16:56;;;;;;;11.60;7.18;;;5.80;99.90;;;;;;13393940;26;20027;-79
2024/04/18 02:22:58;;;;;;;11.13;7.55;;;5.90;99.90;;;;;;13401971;26;20048;-80
2024/04/18 02:29:00;;;;;;;12.60;7.82;;;5.90;99.90;;;;;;13371467;26;20008;-79
2024/04/18 02:35:03;;;;;;;10.57;7.35;;;5.90;99.90;;;;;;13363852;26;20019;-80
2024/04/18 02:41:07;;;;;;;11.02;7.28;;;5.70;99.90;;;;;;13355151;26;21815;-80
2024/04/18 02:47:10;;;;;;;11.07;7.00;;;5.80;99.90;;;;;;13412818;26;20063;-80
2024/04/18 02:53:12;;;;;;;11.65;7.97;;;5.80;99.90;;;;;;13371349;26;20007;-79
2024/04/18 02:59:15;;;;;;;12.98;8.27;;;5.90;99.90;;;;;;13389036;26;20004;-79
2024/04/18 03:05:18;;;;;;;14.75;8.68;;;5.80;99.90;;;;;;13377714;26;20004;-80
2024/04/18 03:11:20;;;;;;;11.43;7.60;;;5.90;99.90;;;;;;13378439;26;20055;-80
2024/04/18 03:17:22;;;;;;;14.60;7.63;;;5.90;99.90;;;;;;13406126;26;20447;-80
2024/04/18 03:23:24;;;;;;;15.30;6.50;;;5.70;99.90;;;;;;13419099;26;20004;-81
2024/04/18 03:29:26;;;;;;;9.75;6.00;;;5.70;99.90;;;;;;13412777;26;20019;-80
2024/04/18 03:35:28;;;;;;;15.00;6.30;;;5.60;99.90;;;;;;13389907;26;20045;-80
2024/04/18 03:41:30;;;;;;;11.82;7.00;;;5.60;99.90;;;;;;13386612;26;20003;-79
2024/04/18 03:47:32;;;;;;;7.40;5.47;;;5.60;99.90;;;;;;13386220;26;20007;-80
2024/04/18 03:53:34;;;;;;;10.85;6.50;;;5.40;99.90;;;;;;13416804;26;20003;-80
2024/04/18 03:59:36;;;;;;;13.15;6.82;;;5.40;99.90;;;;;;13343559;26;20003;-79
2024/04/18 04:05:38;;;;;;;12.38;7.05;;;5.40;99.90;;;;;;13410006;26;20007;-80
2024/04/18 04:11:40;;;;;;;9.93;6.63;;;5.40;99.90;;;;;;13409318;26;20004;-80
2024/04/18 04:17:45;;;;;;;14.25;8.48;;;5.40;99.90;;;;;;13376248;26;20084;-79
2024/04/18 04:23:47;;;;;;;13.45;7.38;;;5.40;99.90;;;;;;13412663;26;20035;-79
2024/04/18 04:29:50;;;;;;;9.10;5.47;;;5.30;99.90;;;;;;13402487;26;20026;-79
2024/04/18 04:35:52;;;;;;;11.02;6.20;;;5.30;99.90;;;;;;13405019;26;20018;-79
2024/04/18 04:41:54;;;;;;;13.38;5.97;;;5.40;99.90;;;;;;13374265;26;20528;-79
2024/04/18 04:47:56;;;;;;;8.82;5.30;;;5.60;99.90;;;;;;13377296;26;20023;-79
2024/04/18 04:53:58;;;;;;;9.45;5.53;;;6.90;99.90;;;;;;13406385;26;20622;-80
2024/04/18 05:00:00;;;;;;;7.22;4.60;;;8.30;99.90;;;;;;13376400;26;20474;-79
2024/04/18 05:06:02;;;;;;;10.23;5.25;;;8.80;99.90;;;;;;13369752;26;20035;-81
2024/04/18 05:12:04;;;;;;;11.70;6.00;;;8.40;99.90;;;;;;13397267;26;20007;-79
2024/04/18 05:18:10;;;;;;;9.20;5.00;;;7.70;99.90;;;;;;13387043;26;20035;-81
2024/04/18 05:24:12;;;;;;;9.75;5.05;;;7.10;99.90;;;;;;13368126;26;20027;-80
2024/04/18 05:36:35;;;;;;;10.73;5.80;;;6.80;99.90;;;;;;13396775;26;20065;-80
2024/04/18 05:42:38;;;;;;;11.15;6.03;;;7.00;99.90;;;;;;13395615;26;20022;-80
2024/04/18 05:48:40;;;;;;;12.38;6.43;;;7.50;99.90;;;;;;13398578;26;20274;-80
2024/04/18 05:54:42;;;;;;;8.80;5.70;;;7.60;99.90;;;;;;13401943;26;20023;-80
2024/04/18 06:00:44;;;;;;;10.52;6.05;;;7.60;99.90;;;;;;13355943;26;20036;-80
2024/04/18 06:06:46;;;;;;;12.68;5.65;;;7.40;99.90;;;;;;13370035;26;20007;-80
2024/04/18 06:12:48;;;;;;;9.68;6.05;;;6.80;99.90;;;;;;13399817;26;20007;-80
2024/04/18 06:18:50;;;;;;;9.98;5.90;;;6.00;99.90;;;;;;13397129;26;20007;-81
2024/04/18 06:24:53;;;;;;;14.70;7.00;;;5.80;99.90;;;;;;13378184;26;20015;-81
2024/04/18 06:30:56;;;;;;;11.05;7.65;;;5.80;99.90;;;;;;13403388;26;20012;-81
2024/04/18 06:36:58;;;;;;;14.40;7.30;;;6.00;99.90;;;;;;13368678;26;20012;-81
2024/04/18 06:43:00;;;;;;;12.00;6.53;;;6.10;99.90;;;;;;13392661;26;20020;-80
2024/04/18 06:49:02;;;;;;;15.25;8.07;;;6.30;99.90;;;;;;13406826;26;20015;-81
2024/04/18 06:55:04;;;;;;;13.27;8.57;;;7.00;99.90;;;;;;13365400;26;20018;-81
2024/04/18 07:01:06;;;;;;;12.35;7.28;;;7.50;99.90;;;;;;13379605;26;20039;-81
2024/04/18 07:07:08;;;;;;;12.15;7.65;;;7.50;99.90;;;;;;13403521;26;20011;-82
2024/04/18 07:13:10;;;;;;;11.57;6.90;;;8.00;99.90;;;;;;13409936;26;20040;-82
2024/04/18 07:19:12;;;;;;;12.13;7.25;;;8.30;99.90;;;;;;13365832;26;20011;-81
2024/04/18 07:25:15;;;;;;;11.75;6.63;;;7.90;99.90;;;;;;13403360;26;20022;-79
2024/04/18 07:31:17;;;;;;;8.43;6.68;;;8.40;99.90;;;;;;13380637;26;20014;-80
2024/04/18 07:37:20;;;;;;;10.00;6.75;;;9.20;99.90;;;;;;13420537;26;20030;-80
2024/04/18 07:43:22;;;;;;;10.35;6.40;;;8.30;99.90;;;;;;13415307;26;20455;-80
2024/04/18 07:49:24;;;;;;;9.18;6.35;;;8.00;99.90;;;;;;13414378;26;20106;-80
2024/04/18 07:55:26;;;;;;;10.80;6.93;;;8.20;99.90;;;;;;13393407;26;20023;-81
2024/04/18 08:01:28;;;;;;;12.15;7.20;;;8.40;99.90;;;;;;13413111;26;20048;-79
2024/04/18 08:07:34;;;;;;;;;;;8.70;99.90;;;;;;13381777;26;20576;-80
2024/04/18 08:13:41;;;;;;;9.55;5.55;;;8.60;99.90;;;;;;13376674;26;19932;-80
2024/04/18 08:19:49;;;;;;;12.13;6.65;;;8.60;99.90;;;;;;13377486;26;20000;-79
2024/04/18 08:25:52;;;;;;;8.75;5.22;;;8.50;99.90;;;;;;13389197;26;20018;-80
2024/04/18 08:31:54;;;;;;;10.50;5.30;;;8.70;99.90;;;;;;13382450;26;20023;-80
2024/04/18 08:37:56;;;;;;;6.75;5.05;;;8.40;99.90;;;;;;13376529;26;20019;-80
2024/04/18 08:44:00;;;;;;;9.25;5.13;;;8.40;99.90;;;;;;13365132;26;20364;-81
2024/04/18 08:50:08;;;;;;;6.65;4.47;;;8.30;99.90;;;;;;13411584;26;20094;-82
2024/04/18 08:56:14;;;;;;;7.75;4.63;;;8.30;99.90;;;;;;13415168;26;20008;-81
2024/04/18 09:02:18;;;;;;;6.82;3.90;;;8.20;99.90;;;;;;13463078;26;20013;-81
2024/04/18 09:08:20;;;;;;;5.93;3.40;;;8.10;99.90;;;;;;13458033;26;20010;-82
2024/04/18 09:14:23;;;;;;;9.88;4.35;;;9.10;99.90;;;;;;13460175;26;20007;-80
2024/04/18 09:20:25;;;;;;;7.18;4.38;;;9.20;99.90;;;;;;13423014;26;20010;-82
2024/04/18 09:26:28;;;;;;;7.82;4.65;;;9.60;99.90;;;;;;13388541;26;20015;-81
2024/04/18 09:32:31;;;;;;;7.47;4.33;;;8.70;99.90;;;;;;13413113;26;20588;-82
2024/04/18 09:38:36;;;;;;;6.72;4.38;;;8.80;99.90;;;;;;13381753;26;20011;-82
2024/04/18 09:44:42;;;;;;;7.20;3.67;;;8.60;99.90;;;;;;13365581;26;20343;-81
2024/04/18 09:50:46;;;;;;;5.03;3.50;;;8.40;99.90;;;;;;13398712;26;20022;-82
2024/04/18 09:56:50;;;;;;;5.43;2.60;;;9.30;99.90;;;;;;13371436;26;20019;-83
2024/04/18 10:02:54;;;;;;;5.07;2.22;;;10.20;99.90;;;;;;13393283;26;20080;-79
2024/04/18 10:08:57;;;;;;;5.07;2.65;;;10.00;99.90;;;;;;13393085;26;20004;-78
2024/04/18 10:15:00;;;;;;;6.18;2.72;;;9.40;99.90;;;;;;13388548;26;20015;-78
2024/04/18 10:21:13;;;;;;;3.85;1.65;;;8.90;99.90;;;;;;13363309;26;20015;-79
2024/04/18 10:27:19;;;;;;;5.55;1.92;;;8.90;99.90;;;;;;13370814;26;20023;-80
2024/04/18 10:33:30;;;;;;;2.97;1.58;;;8.90;99.90;;;;;;13388780;26;20019;-79
2024/04/18 10:39:37;;;;;;;3.97;1.25;;;8.70;99.90;;;;;;13348907;26;20058;-79
2024/04/18 10:45:41;;;;;;;2.40;1.10;;;9.10;99.90;;;;;;13361630;26;20416;-80
2024/04/18 10:51:45;;;;;;;4.67;1.00;;;10.00;99.90;;;;;;13353877;26;20019;-80
2024/04/18 10:57:48;;;;;;;3.97;1.40;;;10.50;1.00;;;;;;13364720;26;20085;-80
2024/04/18 11:03:52;;;;;;;4.63;1.37;;;10.60;1.00;;;;;;13366187;26;20470;-83
2024/04/18 11:09:54;;;;;;;6.15;1.35;;;10.60;54.40;;;;;;13401374;26;20011;-82
2024/04/18 11:15:57;;;;;;;3.17;1.10;;;9.80;41.50;;;;;;13379699;26;20015;-80
2024/04/18 11:22:00;;;;;;;6.10;1.40;;;9.30;40.90;;;;;;13368237;26;20386;-79
2024/04/18 11:28:06;;;;;;;4.37;1.47;;;8.90;99.90;;;;;;13402004;26;20023;-79
2024/04/18 11:34:09;;;;;;;4.88;1.40;;;9.10;99.90;;;;;;13396768;26;20003;-80
2024/04/18 11:40:11;;;;;;;4.65;1.10;;;9.40;99.90;;;;;;13392998;26;20599;-81
2024/04/18 11:46:13;;;;;;;6.82;1.00;;;9.70;1.00;;;;;;13357682;26;20018;-80
2024/04/18 11:52:15;;;;;;;5.28;1.50;;;10.10;1.00;;;;;;13368403;26;20018;-82
2024/04/18 11:58:17;;;;;;;2.35;0.80;;;10.70;1.00;;;;;;13394344;26;20498;-81
2024/04/18 12:04:19;;;;;;;4.82;1.27;;;10.80;1.00;;;;;;13398575;26;20014;-78
2024/04/18 12:10:22;;;;;;;5.72;1.10;;;10.50;1.00;;;;;;13363001;26;20027;-81
2024/04/18 12:16:24;;;;;;;5.80;1.58;;;10.50;18.80;;;;;;13393306;26;21256;-81
2024/04/18 12:22:26;;;;;;;6.35;1.13;;;10.50;81.90;;;;;;13396231;26;20019;-77
2024/04/18 12:28:29;;;;;;;4.40;1.48;;;9.90;1.00;;;;;;13364398;26;20709;-78
2024/04/18 12:34:31;;;;;;;5.38;1.48;;;9.70;1.00;;;;;;13363189;26;20003;-78
2024/04/18 12:40:33;;;;;;;3.75;1.10;;;9.60;1.00;;;;;;13400040;26;20043;-77
2024/04/18 12:46:35;;;;;;;4.15;1.10;;;9.90;1.00;;;;;;13383880;26;20008;-78
2024/04/18 12:52:37;;;;;;;4.93;1.15;;;10.70;27.80;;;;;;13394467;26;20018;-78
2024/04/18 12:58:39;;;;;;;3.05;1.00;;;11.10;1.00;;;;;;13372531;26;20071;-85
2024/04/18 13:04:42;;;;;;;6.43;1.13;;;11.70;99.90;;;;;;13375971;26;20355;-79
2024/04/18 13:10:44;;;;;;;3.80;1.52;;;11.20;1.00;;;;;;13390383;26;20362;-79
2024/04/18 13:16:49;;;;;;;3.15;1.20;;;11.60;1.00;;;;;;13395952;26;20008;-79
2024/04/18 13:22:51;;;;;;;3.65;1.00;;;11.30;99.90;;;;;;13397983;26;20160;-81
2024/04/18 13:28:53;;;;;;;2.55;0.90;;;11.20;1.00;;;;;;13358066;26;20015;-80
2024/04/18 13:34:55;;;;;;;5.03;0.93;;;11.10;1.00;;;;;;13352169;26;20018;-80
2024/04/18 13:40:58;;;;;;;2.70;1.20;;;11.00;1.00;;;;;;13401679;26;20413;-79
2024/04/18 13:47:00;;;;;;;1.58;0.57;;;10.70;1.00;;;;;;13357842;26;20693;-81
2024/04/18 13:53:02;;;;;;;1.85;0.50;;;10.40;99.90;;;;;;13384743;26;20303;-83
2024/04/18 13:59:04;;;;;;;1.67;0.32;;;10.50;1.00;;;;;;13394264;26;20007;-81
2024/04/18 14:05:06;;;;;;;1.73;0.40;;;11.00;99.90;;;;;;13392081;26;20023;-79
2024/04/18 14:11:09;;;;;;;3.40;0.50;;;11.00;1.00;;;;;;13356214;26;20033;-79
2024/04/18 14:23:34;;;;;;;3.63;0.90;;;10.90;1.00;;;;;;13388533;26;20594;-81
2024/04/18 14:29:36;;;;;;;1.73;0.50;;;11.00;1.00;;;;;;13361278;26;20027;-78
2024/04/18 14:35:39;;;;;;;4.28;0.60;;;11.20;97.40;;;;;;13353238;26;20012;-82
2024/04/18 14:41:41;;;;;;;2.50;0.70;;;11.10;1.00;;;;;;13369079;26;20027;-79
2024/04/18 14:47:43;;;;;;;2.58;0.60;;;11.00;99.90;;;;;;13360762;26;20011;-78
2024/04/18 14:53:45;;;;;;;2.10;0.60;;;10.80;99.90;;;;;;13394533;26;20541;-81
2024/04/18 14:59:47;;;;;;;2.03;0.60;;;10.70;1.00;;;;;;13393863;26;22154;-78
2024/04/18 15:05:56;;;;;;;3.22;1.08;;;10.60;99.90;;;;;;13366817;26;20040;-78
2024/04/18 15:11:59;;;;;;;5.65;0.80;;;10.50;1.00;;;;;;13402142;26;20050;-78
2024/04/18 15:18:01;;;;;;;2.17;0.88;;;10.50;99.90;;;;;;13358139;26;20022;-82
2024/04/18 15:24:04;;;;;;;5.53;0.73;;;10.60;99.90;;;;;;13365423;26;20057;-80
2024/04/18 15:30:07;;;;;;;2.13;0.73;;;10.70;99.90;;;;;;13368475;26;20019;-82
2024/04/18 15:36:09;;;;;;;2.47;0.57;;;10.60;1.00;;;;;;13367214;26;20463;-77
2024/04/18 15:42:11;;;;;;;2.60;0.70;;;10.60;99.90;;;;;;13368469;26;20019;-76
2024/04/18 15:48:13;;;;;;;1.85;0.73;;;10.60;24.00;;;;;;13401895;26;20081;-82
2024/04/18 15:54:16;;;;;;;4.07;0.88;;;10.50;99.10;;;;;;13398593;26;20082;-76
2024/04/18 16:00:20;;;;;;;;;;;10.40;99.90;;;;;;13404542;26;20421;-79
2024/04/18 16:06:22;;;;;;;1.58;0.80;;;10.30;1.00;;;;;;13401040;26;19933;-75
2024/04/18 16:12:24;;;;;;;5.78;0.85;;;10.30;1.00;;;;;;13362571;26;21082;-79
2024/04/18 16:18:28;;;;;;;1.85;0.63;;;10.30;99.90;;;;;;13319758;26;20003;-78
2024/04/18 16:24:30;;;;;;;2.10;1.00;;;10.30;1.00;;;;;;13376847;26;20508;-78
2024/04/18 16:30:33;;;;;;;4.03;1.08;;;10.30;1.00;;;;;;13385394;26;20752;-79
2024/04/18 16:36:35;;;;;;;2.35;0.93;;;10.30;3.00;;;;;;13398970;26;20023;-78
2024/04/18 16:42:41;;;;;;;4.20;0.80;;;10.20;1.00;;;;;;13369784;26;20015;-76
2024/04/18 16:48:46;;;;;;;1.77;0.80;;;10.00;1.00;;;;;;13373155;26;20003;-79
2024/04/18 16:54:50;;;;;;;6.72;0.75;;;9.90;1.00;;;;;;13406579;26;20011;-78
2024/04/18 17:00:52;;;;;;;2.40;0.80;;;10.00;34.40;;;;;;13405082;26;20022;-77
2024/04/18 17:06:54;;;;;;;5.80;1.17;;;9.90;1.00;;;;;;13371307;26;20707;-79
2024/04/18 17:12:56;;;;;;;3.80;1.00;;;9.90;1.00;;;;;;13409510;26;20026;-78
2024/04/18 17:18:59;;;;;;;1.98;0.70;;;9.80;1.00;;;;;;13362989;26;20011;-80
2024/04/18 17:25:02;;;;;;;2.72;0.80;;;9.70;1.00;;;;;;13395835;26;20007;-77
2024/04/18 17:31:04;;;;;;;3.60;0.82;;;9.70;30.60;;;;;;13403801;26;20061;-77
2024/04/18 17:37:07;;;;;;;2.85;1.05;;;9.50;1.00;;;;;;13401107;26;20030;-79
2024/04/18 17:43:09;;;;;;;5.38;1.80;;;9.40;1.00;;;;;;13375755;26;20483;-78
2024/04/18 17:49:11;;;;;;;4.25;0.98;;;9.40;1.00;;;;;;13363983;26;20008;-78
2024/04/18 17:55:14;;;;;;;2.78;1.00;;;9.30;14.70;;;;;;13402459;26;20786;-78
2024/04/18 18:01:16;;;;;;;4.07;0.90;;;9.20;21.20;;;;;;13358879;26;20495;-79
2024/04/18 18:07:18;;;;;;;5.45;1.25;;;9.20;83.30;;;;;;13386537;26;20015;-79
2024/04/18 18:13:20;;;;;;;2.90;1.13;;;9.10;67.30;;;;;;13400808;26;20404;-78
2024/04/18 18:19:22;;;;;;;2.78;1.05;;;9.00;99.90;;;;;;13398815;26;20049;-78
2024/04/18 18:25:25;;;;;;;3.45;0.88;;;8.90;99.90;;;;;;13400095;26;20465;-77
2024/04/18 18:31:27;;;;;;;8.48;1.48;;;8.90;99.90;;;;;;13371693;26;20034;-79
2024/04/18 18:37:29;;;;;;;4.68;1.05;;;8.80;99.90;;;;;;13390236;26;19999;-79
2024/04/18 18:43:31;;;;;;;5.22;1.17;;;8.70;99.90;;;;;;13369104;26;20083;-79
2024/04/18 18:49:33;;;;;;;1.83;0.95;;;8.70;99.90;;;;;;13392758;26;20641;-78
2024/04/18 18:55:36;;;;;;;4.80;1.20;;;8.60;99.90;;;;;;13400462;26;20015;-79
2024/04/18 19:01:38;;;;;;;5.40;1.20;;;8.50;99.90;;;;;;13394820;26;20012;-78
2024/04/18 19:07:40;;;;;;;3.42;1.17;;;8.50;99.90;;;;;;13367738;26;20046;-77
2024/04/18 19:13:42;;;;;;;3.15;1.35;;;8.30;99.90;;;;;;13361536;26;20097;-78
2024/04/18 19:19:45;;;;;;;2.03;1.00;;;8.40;99.90;;;;;;13372438;26;20026;-78
2024/04/18 19:25:48;;;;;;;3.55;1.20;;;8.50;99.90;;;;;;13372470;26;20083;-78
2024/04/18 19:31:50;;;;;;;2.88;1.20;;;8.50;99.90;;;;;;13370596;26;20393;-78
2024/04/18 19:37:52;;;;;;;2.88;1.27;;;8.50;99.90;;;;;;13366257;26;20058;-78
2024/04/18 19:43:54;;;;;;;5.13;1.60;;;8.40;99.90;;;;;;13393996;26;20411;-79
2024/04/18 19:49:56;;;;;;;3.17;1.55;;;8.30;99.90;;;;;;13367935;26;20011;-78
2024/04/18 19:55:58;;;;;;;3.20;1.00;;;8.30;99.90;;;;;;13369698;26;20016;-79
2024/04/18 20:02:00;;;;;;;3.47;1.20;;;8.20;99.90;;;;;;13394645;26;20019;-78
2024/04/18 20:08:03;;;;;;;2.63;0.80;;;8.10;99.90;;;;;;13357835;26;20404;-78
2024/04/18 20:14:05;;;;;;;3.78;1.17;;;8.00;99.90;;;;;;13370767;26;20007;-78
2024/04/18 20:20:07;;;;;;;3.17;1.10;;;8.00;99.90;;;;;;13388010;26;20408;-78
2024/04/18 20:26:10;;;;;;;3.67;1.35;;;8.00;99.90;;;;;;13387967;26;20011;-77
2024/04/18 20:32:11;;;;;;;2.85;1.10;;;8.00;99.90;;;;;;13376522;26;20777;-77
2024/04/18 20:38:14;;;;;;;4.50;1.40;;;7.90;99.90;;;;;;13373770;26;20498;-76
2024/04/18 20:44:19;;;;;;;5.57;1.35;;;7.80;99.90;;;;;;13378771;26;20027;-75
2024/04/18 20:50:21;;;;;;;5.28;1.48;;;7.90;99.90;;;;;;13410567;26;20011;-78
2024/04/18 20:56:23;;;;;;;5.00;1.35;;;7.80;99.90;;;;;;13409443;26;20475;-77
2024/04/18 21:02:27;;;;;;;5.63;1.20;;;7.80;99.90;;;;;;13376335;26;20022;-77
2024/04/18 21:08:30;;;;;;;5.07;1.45;;;7.80;99.90;;;;;;13373286;26;20540;-77
2024/04/18 21:14:32;;;;;;;6.07;1.20;;;7.70;99.90;;;;;;13408196;26;20413;-78
2024/04/18 21:20:35;;;;;;;4.15;1.35;;;7.80;99.90;;;;;;13403003;26;20520;-78
2024/04/18 21:26:37;;;;;;;5.32;1.30;;;7.80;99.90;;;;;;13407316;26;20082;-78
2024/04/18 21:32:39;;;;;;;4.05;1.52;;;7.70;99.90;;;;;;13402164;26;20012;-79
2024/04/18 21:38:41;;;;;;;2.97;1.10;;;7.70;99.90;;;;;;13402934;26;20023;-78
2024/04/18 21:44:58;;;;;;;9.25;1.27;;;7.70;99.90;;;;;;13373709;26;20080;-79
2024/04/18 21:51:01;;;;;;;7.78;1.23;;;7.60;99.90;;;;;;13383677;26;20007;-79
2024/04/18 21:57:05;;;;;;;8.60;1.20;;;7.60;99.90;;;;;;13394187;26;20047;-78
2024/04/18 22:03:07;;;;;;;;;;;7.70;99.90;;;;;;13392038;26;20020;-78
2024/04/18 22:09:09;;;;;;;4.53;1.13;;;7.60;99.90;;;;;;13394490;26;20388;-79
2024/04/18 22:15:12;;;;;;;5.18;1.42;;;7.60;99.90;;;;;;13389062;26;20007;-78
2024/04/18 22:21:14;;;;;;;4.65;1.35;;;7.60;99.90;;;;;;13359270;26;20088;-79
2024/04/18 22:27:18;;;;;;;7.38;1.20;;;7.50;99.90;;;;;;13363019;26;20019;-78
2024/04/18 22:33:21;;;;;;;6.10;1.67;;;7.60;99.90;;;;;;13370471;26;20011;-79
2024/04/18 22:39:23;;;;;;;4.40;1.00;;;7.60;99.90;;;;;;13392499;26;20092;-79
2024/04/18 22:45:25;;;;;;;6.30;1.55;;;7.70;99.90;;;;;;13397739;26;20081;-79
2024/04/18 22:51:28;;;;;;;8.00;1.52;;;7.50;99.90;;;;;;13360509;26;20015;-77
2024/04/18 22:57:30;;;;;;;4.88;1.02;;;7.60;99.90;;;;;;13355284;26;20023;-77
2024/04/18 23:03:32;;;;;;;3.78;1.08;;;7.60;99.90;;;;;;13377297;26;20043;-77
2024/04/18 23:09:34;;;;;;;5.75;1.00;;;7.50;99.90;;;;;;13362716;26;20015;-76
2024/04/18 23:15:36;;;;;;;3.70;1.00;;;7.30;99.90;;;;;;13407149;26;20043;-78
2024/04/18 23:21:39;;;;;;;4.70;1.13;;;7.20;99.90;;;;;;13380236;26;20042;-75
2024/04/18 23:27:41;;;;;;;7.13;1.13;;;7.20;99.90;;;;;;13412623;26;20007;-78
2024/04/18 23:33:43;;;;;;;5.22;1.38;;;7.10;99.90;;;;;;13400583;26;19999;-76
2024/04/18 23:39:45;;;;;;;6.60;1.20;;;7.10;99.90;;;;;;13411922;26;20079;-76
2024/04/18 23:45:48;;;;;;;7.38;1.20;;;7.10;99.90;;;;;;13402883;26;20018;-75
2024/04/18 23:51:50;;;;;;;7.22;1.48;;;7.10;99.90;;;;;;13380938;26;20004;-76
2024/04/18 23:57:52;;;;;;;6.93;1.42;;;7.20;99.90;;;;;;13377700;26;20015;-77
